createdAt,value
2018-09-09T00:02:09.148Z,25.20
2018-09-09T00:04:36.809Z,25.20
2018-09-09T00:07:04.636Z,25.20
2018-09-09T00:09:37.882Z,25.20
2018-09-09T00:12:05.586Z,25.20
2018-09-09T00:14:33.252Z,25.20
2018-09-09T00:17:01.048Z,25.20
2018-09-09T00:19:28.992Z,25.20
2018-09-09T00:21:56.890Z,25.20
2018-09-09T00:24:24.523Z,25.20
2018-09-09T00:26:52.222Z,25.20
2018-09-09T00:29:19.918Z,25.20
2018-09-09T00:31:47.714Z,25.20
2018-09-09T00:34:15.360Z,25.20
2018-09-09T00:36:42.992Z,25.20
2018-09-09T00:39:10.745Z,25.20
2018-09-09T00:41:38.380Z,25.20
2018-09-09T00:44:06.048Z,25.20
2018-09-09T00:46:33.698Z,25.20
2018-09-09T00:49:06.779Z,25.20
2018-09-09T00:51:39.793Z,25.20
2018-09-09T00:54:07.468Z,25.20
2018-09-09T00:56:35.126Z,25.10
2018-09-09T00:59:02.748Z,25.20
2018-09-09T01:01:30.468Z,25.20
2018-09-09T01:03:58.106Z,25.10
2018-09-09T01:06:25.772Z,25.20
2018-09-09T01:08:53.378Z,25.20
2018-09-09T01:11:21.086Z,25.20
2018-09-09T01:13:48.712Z,25.10
2018-09-09T01:16:16.396Z,25.10
2018-09-09T01:18:44.136Z,25.10
2018-09-09T01:21:11.850Z,25.10
2018-09-09T01:23:39.547Z,25.10
2018-09-09T01:26:07.212Z,25.10
2018-09-09T01:28:34.861Z,25.10
2018-09-09T01:31:02.523Z,25.10
2018-09-09T01:33:30.226Z,25.10
2018-09-09T01:35:57.906Z,25.10
2018-09-09T01:38:25.580Z,25.10
2018-09-09T01:40:53.240Z,25.10
2018-09-09T01:43:20.928Z,25.10
2018-09-09T01:45:48.594Z,25.10
2018-09-09T01:48:16.249Z,25.10
2018-09-09T01:50:43.890Z,25.10
2018-09-09T01:53:11.632Z,25.10
2018-09-09T01:55:39.266Z,25.10
2018-09-09T01:58:06.918Z,25.10
2018-09-09T02:00:34.582Z,25.10
2018-09-09T02:03:02.258Z,25.10
2018-09-09T02:05:29.920Z,25.10
2018-09-09T02:07:57.754Z,25.10
2018-09-09T02:10:25.369Z,25.10
2018-09-09T02:12:53.256Z,25.10
2018-09-09T02:15:20.952Z,25.10
2018-09-09T02:17:48.657Z,25.10
2018-09-09T02:20:16.348Z,25.10
2018-09-09T02:22:43.980Z,25.10
2018-09-09T02:25:11.754Z,25.10
2018-09-09T02:27:39.366Z,25.10
2018-09-09T02:30:07.062Z,25.10
2018-09-09T02:32:34.784Z,25.10
2018-09-09T02:35:02.486Z,25.10
2018-09-09T02:37:30.132Z,25.10
2018-09-09T02:39:57.778Z,25.10
2018-09-09T02:42:25.446Z,25.10
2018-09-09T02:44:53.078Z,25.10
2018-09-09T02:47:20.744Z,25.10
2018-09-09T02:49:48.370Z,25.10
2018-09-09T02:52:15.989Z,25.10
2018-09-09T02:54:43.633Z,25.00
2018-09-09T02:57:11.342Z,25.10
2018-09-09T02:59:39.049Z,25.10
2018-09-09T03:02:06.774Z,25.10
2018-09-09T03:04:34.534Z,25.10
2018-09-09T03:07:02.238Z,25.00
2018-09-09T03:09:29.882Z,25.10
2018-09-09T03:11:57.516Z,25.10
2018-09-09T03:14:25.186Z,25.10
2018-09-09T03:16:52.779Z,25.00
2018-09-09T03:19:20.550Z,25.10
2018-09-09T03:21:48.248Z,25.10
2018-09-09T03:24:15.932Z,25.10
2018-09-09T03:26:43.570Z,25.10
2018-09-09T03:29:11.230Z,25.00
2018-09-09T03:31:38.900Z,25.00
2018-09-09T03:34:06.608Z,25.00
2018-09-09T03:36:34.320Z,25.00
2018-09-09T03:39:02.041Z,25.00
2018-09-09T03:41:29.700Z,25.00
2018-09-09T03:43:57.378Z,25.00
2018-09-09T03:46:25.224Z,25.00
2018-09-09T03:48:52.912Z,25.00
2018-09-09T03:51:20.598Z,25.00
2018-09-09T03:53:48.211Z,25.00
2018-09-09T03:56:15.847Z,25.00
2018-09-09T03:58:43.634Z,25.00
2018-09-09T04:01:11.368Z,25.00
2018-09-09T04:03:39.147Z,25.00
2018-09-09T04:06:06.844Z,25.00
2018-09-09T04:08:34.588Z,25.00
2018-09-09T04:11:06.506Z,25.00
2018-09-09T04:13:34.218Z,25.00
2018-09-09T04:16:01.828Z,25.00
2018-09-09T04:18:29.594Z,25.00
2018-09-09T04:20:57.246Z,25.00
2018-09-09T04:23:24.888Z,25.00
2018-09-09T04:25:52.528Z,25.00
2018-09-09T04:28:20.211Z,25.00
2018-09-09T04:30:47.898Z,25.00
2018-09-09T04:33:15.659Z,25.00
2018-09-09T04:35:43.321Z,25.00
2018-09-09T04:38:10.994Z,25.00
2018-09-09T04:40:38.629Z,25.00
2018-09-09T04:43:06.363Z,25.00
2018-09-09T04:45:33.969Z,25.00
2018-09-09T04:48:01.595Z,25.00
2018-09-09T04:50:29.291Z,25.00
2018-09-09T04:52:56.969Z,25.00
2018-09-09T04:55:24.625Z,25.00
2018-09-09T04:57:52.237Z,25.00
2018-09-09T05:00:19.985Z,25.00
2018-09-09T05:02:47.645Z,25.00
2018-09-09T05:05:15.313Z,25.00
2018-09-09T05:07:43.001Z,25.00
2018-09-09T05:10:10.748Z,25.00
2018-09-09T05:12:38.589Z,25.00
2018-09-09T05:15:06.242Z,25.00
2018-09-09T05:17:34.430Z,25.00
2018-09-09T05:20:02.101Z,25.00
2018-09-09T05:22:29.899Z,25.00
2018-09-09T05:24:57.547Z,25.00
2018-09-09T05:27:25.184Z,25.00
2018-09-09T05:29:53.058Z,25.00
2018-09-09T05:32:20.715Z,25.00
2018-09-09T05:34:48.389Z,25.00
2018-09-09T05:37:16.023Z,25.00
2018-09-09T05:39:43.673Z,25.00
2018-09-09T05:42:11.314Z,25.00
2018-09-09T05:44:39.083Z,25.00
2018-09-09T05:47:06.665Z,25.00
2018-09-09T05:49:34.300Z,25.00
2018-09-09T05:52:01.914Z,25.00
2018-09-09T05:54:29.565Z,25.00
2018-09-09T05:56:57.224Z,25.00
2018-09-09T05:59:24.941Z,25.00
2018-09-09T06:01:52.901Z,25.00
2018-09-09T06:04:20.627Z,25.00
2018-09-09T06:06:48.319Z,25.00
2018-09-09T06:09:16.009Z,25.00
2018-09-09T06:11:43.731Z,25.00
2018-09-09T06:14:11.429Z,25.00
2018-09-09T06:16:39.097Z,25.00
2018-09-09T06:19:06.789Z,25.00
2018-09-09T06:21:34.377Z,25.00
2018-09-09T06:24:02.031Z,25.00
2018-09-09T06:26:29.888Z,25.00
2018-09-09T06:28:57.604Z,25.00
2018-09-09T06:31:25.270Z,25.00
2018-09-09T06:33:52.947Z,25.00
2018-09-09T06:36:20.575Z,25.00
2018-09-09T06:38:48.471Z,25.00
2018-09-09T06:41:16.185Z,25.00
2018-09-09T06:43:43.990Z,25.00
2018-09-09T06:46:11.615Z,25.00
2018-09-09T06:48:39.243Z,25.00
2018-09-09T06:51:06.933Z,25.00
2018-09-09T06:53:34.957Z,25.00
2018-09-09T06:56:02.621Z,25.00
2018-09-09T06:58:30.417Z,25.00
2018-09-09T07:00:58.178Z,25.00
2018-09-09T07:03:25.796Z,25.00
2018-09-09T07:05:53.477Z,25.00
2018-09-09T07:08:21.158Z,25.00
2018-09-09T07:10:48.967Z,25.00
2018-09-09T07:13:16.609Z,25.00
2018-09-09T07:15:44.600Z,25.00
2018-09-09T07:18:12.315Z,25.00
2018-09-09T07:20:39.957Z,25.00
2018-09-09T07:23:07.667Z,25.00
2018-09-09T07:25:35.365Z,25.00
2018-09-09T07:28:03.049Z,25.00
2018-09-09T07:30:31.085Z,25.00
2018-09-09T07:32:58.812Z,25.00
2018-09-09T07:35:26.529Z,25.00
2018-09-09T07:37:54.651Z,25.00
2018-09-09T07:40:22.422Z,25.00
2018-09-09T07:42:50.152Z,25.00
2018-09-09T07:45:18.125Z,25.00
2018-09-09T07:47:45.806Z,25.10
2018-09-09T07:50:13.488Z,25.00
2018-09-09T07:52:41.195Z,25.10
2018-09-09T07:55:08.904Z,25.10
2018-09-09T07:57:36.657Z,25.10
2018-09-09T08:00:04.530Z,25.10
2018-09-09T08:02:32.239Z,25.10
2018-09-09T08:04:59.822Z,25.10
2018-09-09T08:07:27.628Z,25.10
2018-09-09T08:09:55.273Z,25.10
2018-09-09T08:12:22.908Z,25.10
2018-09-09T08:14:50.543Z,25.10
2018-09-09T08:17:18.252Z,25.10
2018-09-09T08:19:45.874Z,25.10
2018-09-09T08:22:13.508Z,25.10
2018-09-09T08:24:41.180Z,25.10
2018-09-09T08:27:08.840Z,25.10
2018-09-09T08:29:36.460Z,25.10
2018-09-09T08:32:04.148Z,25.10
2018-09-09T08:34:31.765Z,25.10
2018-09-09T08:36:59.429Z,25.10
2018-09-09T08:39:27.094Z,25.10
2018-09-09T08:41:54.728Z,25.10
2018-09-09T08:44:22.539Z,25.10
2018-09-09T08:46:50.248Z,25.10
2018-09-09T08:49:17.916Z,25.10
2018-09-09T08:51:45.571Z,25.10
2018-09-09T08:54:13.202Z,25.10
2018-09-09T08:56:40.959Z,25.10
2018-09-09T08:59:08.573Z,25.10
2018-09-09T09:01:36.272Z,25.10
2018-09-09T09:04:03.968Z,25.10
2018-09-09T09:06:31.716Z,25.10
2018-09-09T09:08:59.396Z,25.10
2018-09-09T09:11:27.046Z,25.10
2018-09-09T09:13:54.641Z,25.10
2018-09-09T09:16:22.322Z,25.10
2018-09-09T09:18:50.140Z,25.20
2018-09-09T09:21:17.787Z,25.10
2018-09-09T09:23:45.516Z,25.10
2018-09-09T09:26:15.974Z,25.20
2018-09-09T09:28:43.618Z,25.20
2018-09-09T09:31:11.333Z,25.20
2018-09-09T09:33:38.972Z,25.10
2018-09-09T09:36:06.653Z,25.20
2018-09-09T09:38:34.285Z,25.20
2018-09-09T09:41:02.014Z,25.20
2018-09-09T09:43:29.708Z,25.20
2018-09-09T09:45:57.332Z,25.20
2018-09-09T09:48:25.013Z,25.20
2018-09-09T09:50:52.654Z,25.20
2018-09-09T09:53:20.361Z,25.10
2018-09-09T09:55:47.933Z,25.20
2018-09-09T09:58:15.680Z,25.20
2018-09-09T10:00:48.744Z,25.10
2018-09-09T10:03:16.516Z,25.20
2018-09-09T10:05:44.138Z,25.20
2018-09-09T10:08:11.827Z,25.20
2018-09-09T10:10:39.438Z,25.20
2018-09-09T10:13:07.086Z,25.20
2018-09-09T10:15:34.811Z,25.20
2018-09-09T10:18:02.423Z,25.20
2018-09-09T10:20:30.075Z,25.10
2018-09-09T10:22:57.698Z,25.10
2018-09-09T10:25:25.363Z,25.10
2018-09-09T10:27:53.034Z,25.20
2018-09-09T10:30:20.699Z,25.10
2018-09-09T10:32:48.400Z,25.10
2018-09-09T10:35:16.131Z,25.10
2018-09-09T10:37:43.793Z,25.10
2018-09-09T10:40:11.455Z,25.10
2018-09-09T10:42:39.111Z,25.10
2018-09-09T10:45:06.855Z,25.20
2018-09-09T10:47:34.639Z,25.10
2018-09-09T10:50:02.293Z,25.10
2018-09-09T10:52:29.935Z,25.10
2018-09-09T10:54:57.567Z,25.10
2018-09-09T10:57:25.279Z,25.20
2018-09-09T10:59:52.975Z,25.20
2018-09-09T11:02:20.691Z,25.20
2018-09-09T11:04:48.467Z,25.20
2018-09-09T11:07:16.105Z,25.20
2018-09-09T11:09:43.756Z,25.10
2018-09-09T11:12:11.397Z,25.20
2018-09-09T11:14:39.032Z,25.20
2018-09-09T11:17:06.865Z,25.20
2018-09-09T11:19:34.603Z,25.20
2018-09-09T11:22:02.266Z,25.20
2018-09-09T11:24:29.958Z,25.20
2018-09-09T11:26:57.630Z,25.20
2018-09-09T11:29:25.325Z,25.20
2018-09-09T11:31:52.947Z,25.20
2018-09-09T11:34:20.602Z,25.20
2018-09-09T11:36:48.230Z,25.20
2018-09-09T11:39:15.978Z,25.20
2018-09-09T11:41:43.665Z,25.20
2018-09-09T11:44:11.371Z,25.20
2018-09-09T11:46:39.021Z,25.20
2018-09-09T11:49:06.681Z,25.20
2018-09-09T11:51:34.397Z,25.20
2018-09-09T11:54:02.087Z,25.20
2018-09-09T11:56:29.737Z,25.20
2018-09-09T11:58:59.117Z,25.20
2018-09-09T12:01:26.876Z,25.20
2018-09-09T12:03:54.561Z,25.20
2018-09-09T12:06:22.181Z,25.20
2018-09-09T12:08:50.109Z,25.20
2018-09-09T12:11:17.998Z,25.20
2018-09-09T12:13:45.747Z,25.20
2018-09-09T12:16:13.396Z,25.20
2018-09-09T12:18:41.087Z,25.20
2018-09-09T12:21:08.813Z,25.20
2018-09-09T12:23:36.636Z,25.20
2018-09-09T12:26:04.191Z,25.30
2018-09-09T12:28:31.816Z,25.20
2018-09-09T12:30:59.444Z,25.20
2018-09-09T12:33:27.291Z,25.20
2018-09-09T12:35:55.016Z,25.20
2018-09-09T12:38:22.713Z,25.20
2018-09-09T12:40:50.834Z,25.20
2018-09-09T12:43:23.838Z,25.20
2018-09-09T12:45:57.031Z,25.20
2018-09-09T12:48:30.089Z,25.20
2018-09-09T12:50:58.085Z,25.20
2018-09-09T12:53:25.777Z,25.20
2018-09-09T12:55:53.483Z,25.20
2018-09-09T12:58:21.281Z,25.20
2018-09-09T13:00:48.997Z,25.20
2018-09-09T13:03:16.778Z,25.20
2018-09-09T13:05:44.570Z,25.30
2018-09-09T13:08:12.359Z,25.20
2018-09-09T13:10:40.130Z,25.20
2018-09-09T13:13:13.274Z,25.30
2018-09-09T13:15:40.929Z,25.30
2018-09-09T13:18:08.585Z,25.30
2018-09-09T13:20:36.283Z,25.20
2018-09-09T13:23:03.921Z,25.30
2018-09-09T13:25:31.735Z,25.30
2018-09-09T13:27:59.549Z,25.30
2018-09-09T13:30:27.319Z,25.30
2018-09-09T13:32:55.091Z,25.30
2018-09-09T13:35:22.726Z,25.30
2018-09-09T13:37:50.422Z,25.30
2018-09-09T13:40:18.101Z,25.30
2018-09-09T13:42:45.757Z,25.30
2018-09-09T13:45:13.420Z,25.30
2018-09-09T13:47:41.051Z,25.40
2018-09-09T13:50:08.765Z,25.30
2018-09-09T13:52:36.383Z,25.30
2018-09-09T13:55:04.219Z,25.40
2018-09-09T13:57:31.879Z,25.40
2018-09-09T13:59:59.594Z,25.30
2018-09-09T14:02:27.241Z,25.30
2018-09-09T14:04:54.863Z,25.40
2018-09-09T14:07:22.770Z,25.50
2018-09-09T14:09:50.587Z,25.50
2018-09-09T14:12:18.230Z,25.40
2018-09-09T14:14:46.064Z,25.40
2018-09-09T14:17:13.710Z,25.40
2018-09-09T14:19:41.529Z,25.40
2018-09-09T14:22:09.190Z,25.40
2018-09-09T14:24:36.916Z,25.40
2018-09-09T14:27:04.546Z,25.60
2018-09-09T14:29:32.346Z,25.90
2018-09-09T14:31:59.992Z,26.00
2018-09-09T14:34:27.665Z,25.90
2018-09-09T14:36:55.378Z,26.00
2018-09-09T14:39:23.032Z,26.20
2018-09-09T14:41:50.771Z,26.00
2018-09-09T14:44:18.512Z,25.90
2018-09-09T14:46:46.212Z,25.90
2018-09-09T14:49:13.917Z,25.70
2018-09-09T14:51:42.114Z,25.60
2018-09-09T14:54:09.767Z,25.60
2018-09-09T14:56:37.462Z,25.60
2018-09-09T14:59:05.109Z,25.60
2018-09-09T15:01:32.860Z,25.80
2018-09-09T15:04:00.453Z,25.80
2018-09-09T15:06:28.105Z,25.70
2018-09-09T15:08:55.757Z,25.80
2018-09-09T15:11:23.472Z,25.70
2018-09-09T15:13:51.240Z,25.70
2018-09-09T15:16:18.988Z,25.60
2018-09-09T15:18:46.654Z,25.60
2018-09-09T15:21:14.465Z,25.60
2018-09-09T15:23:42.112Z,25.50
2018-09-09T15:26:09.790Z,25.50
2018-09-09T15:28:38.460Z,25.50
2018-09-09T15:31:06.085Z,25.50
2018-09-09T15:33:33.724Z,25.50
2018-09-09T15:36:01.398Z,25.40
2018-09-09T15:38:29.125Z,25.40
2018-09-09T15:40:56.755Z,25.50
2018-09-09T15:43:24.517Z,25.60
2018-09-09T15:45:52.173Z,25.60
2018-09-09T15:48:19.880Z,25.60
2018-09-09T15:50:47.711Z,25.60
2018-09-09T15:53:15.421Z,25.60
2018-09-09T15:55:43.073Z,25.60
2018-09-09T15:58:10.813Z,25.50
2018-09-09T16:00:38.497Z,25.50
2018-09-09T16:03:06.719Z,25.50
2018-09-09T16:05:34.415Z,25.50
2018-09-09T16:08:02.071Z,25.50
2018-09-09T16:10:29.808Z,25.40
2018-09-09T16:12:57.611Z,25.40
2018-09-09T16:15:25.405Z,25.40
2018-09-09T16:17:53.042Z,25.40
2018-09-09T16:20:20.813Z,25.40
2018-09-09T16:22:48.840Z,25.40
2018-09-09T16:25:16.610Z,25.40
2018-09-09T16:27:44.257Z,25.40
2018-09-09T16:30:12.248Z,25.40
2018-09-09T16:32:40.129Z,25.30
2018-09-09T16:35:07.853Z,25.30
2018-09-09T16:37:35.607Z,25.30
2018-09-09T16:40:03.273Z,25.40
2018-09-09T16:42:31.189Z,25.40
2018-09-09T16:44:59.037Z,25.40
2018-09-09T16:47:26.677Z,25.30
2018-09-09T16:49:54.368Z,25.30
2018-09-09T16:52:22.112Z,25.30
2018-09-09T16:54:49.719Z,25.30
2018-09-09T16:57:17.379Z,25.30
2018-09-09T16:59:45.037Z,25.30
2018-09-09T17:02:12.728Z,25.30
2018-09-09T17:04:40.394Z,25.30
2018-09-09T17:07:08.091Z,25.30
2018-09-09T17:09:35.740Z,25.30
2018-09-09T17:12:03.679Z,25.30
2018-09-09T17:14:31.312Z,25.30
2018-09-09T17:16:58.928Z,25.30
2018-09-09T17:19:26.626Z,25.30
2018-09-09T17:21:54.562Z,25.30
2018-09-09T17:24:22.322Z,25.30
2018-09-09T17:26:50.014Z,25.30
2018-09-09T17:29:17.701Z,25.40
2018-09-09T17:31:45.362Z,25.40
2018-09-09T17:34:13.052Z,25.40
2018-09-09T17:36:40.770Z,25.40
2018-09-09T17:39:09.456Z,25.50
2018-09-09T17:41:38.198Z,25.50
2018-09-09T17:44:05.891Z,25.50
2018-09-09T17:46:33.614Z,25.50
2018-09-09T17:49:01.334Z,25.50
2018-09-09T17:51:29.288Z,25.50
2018-09-09T17:53:56.967Z,25.50
2018-09-09T17:56:24.612Z,25.50
2018-09-09T17:58:52.330Z,25.40
2018-09-09T18:01:20.110Z,25.50
2018-09-09T18:03:47.769Z,25.40
2018-09-09T18:06:15.418Z,25.40
2018-09-09T18:08:43.346Z,25.30
2018-09-09T18:11:11.238Z,25.30
2018-09-09T18:13:38.856Z,25.30
2018-09-09T18:16:06.708Z,25.30
2018-09-09T18:18:34.335Z,25.30
2018-09-09T18:21:02.036Z,25.30
2018-09-09T18:23:29.700Z,25.20
2018-09-09T18:25:57.663Z,25.20
2018-09-09T18:28:25.440Z,25.20
2018-09-09T18:30:53.052Z,25.10
2018-09-09T18:33:20.778Z,25.10
2018-09-09T18:35:48.557Z,25.00
2018-09-09T18:38:16.189Z,25.00
2018-09-09T18:40:43.848Z,25.00
2018-09-09T18:43:11.622Z,25.00
2018-09-09T18:45:39.309Z,24.90
2018-09-09T18:48:07.057Z,24.90
2018-09-09T18:50:34.722Z,25.00
2018-09-09T18:53:02.452Z,24.90
2018-09-09T18:55:31.169Z,25.00
2018-09-09T18:57:58.945Z,25.00
2018-09-09T19:00:26.558Z,25.00
2018-09-09T19:02:54.372Z,25.00
2018-09-09T19:05:22.044Z,25.00
2018-09-09T19:07:49.789Z,25.00
2018-09-09T19:10:17.419Z,24.90
2018-09-09T19:12:45.369Z,24.90
2018-09-09T19:15:13.498Z,25.00
2018-09-09T19:17:41.196Z,24.90
2018-09-09T19:20:08.814Z,24.90
2018-09-09T19:22:36.485Z,24.90
2018-09-09T19:25:04.263Z,24.90
2018-09-09T19:27:31.900Z,24.90
2018-09-09T19:29:59.707Z,24.90
2018-09-09T19:32:27.342Z,24.90
2018-09-09T19:34:55.238Z,24.90
2018-09-09T19:37:22.955Z,24.90
2018-09-09T19:39:50.581Z,24.90
2018-09-09T19:42:18.370Z,24.90
2018-09-09T19:44:46.041Z,24.90
2018-09-09T19:47:13.735Z,24.90
2018-09-09T19:49:41.397Z,24.90
2018-09-09T19:52:09.072Z,24.90
2018-09-09T19:54:36.680Z,24.90
2018-09-09T19:57:04.826Z,24.90
2018-09-09T19:59:32.477Z,24.80
2018-09-09T20:02:00.100Z,24.80
2018-09-09T20:04:27.767Z,24.80
2018-09-09T20:06:55.409Z,24.80
2018-09-09T20:09:23.177Z,24.80
2018-09-09T20:11:50.940Z,24.80
2018-09-09T20:14:18.541Z,24.80
2018-09-09T20:16:46.209Z,24.80
2018-09-09T20:19:13.816Z,24.80
2018-09-09T20:21:41.430Z,24.80
2018-09-09T20:24:09.099Z,24.80
2018-09-09T20:26:36.798Z,24.80
2018-09-09T20:29:05.439Z,24.70
2018-09-09T20:31:33.136Z,24.70
2018-09-09T20:34:00.815Z,24.70
2018-09-09T20:36:28.562Z,24.60
2018-09-09T20:38:56.187Z,24.60
2018-09-09T20:41:23.841Z,24.60
2018-09-09T20:43:51.457Z,24.70
2018-09-09T20:46:19.499Z,24.60
2018-09-09T20:48:47.269Z,24.60
2018-09-09T20:51:14.981Z,24.60
2018-09-09T20:53:42.673Z,24.60
2018-09-09T20:56:10.331Z,24.60
2018-09-09T20:58:37.985Z,24.60
2018-09-09T21:01:05.620Z,24.60
2018-09-09T21:03:33.538Z,24.60
2018-09-09T21:06:01.219Z,24.60
2018-09-09T21:08:28.869Z,24.70
2018-09-09T21:10:56.590Z,24.70
2018-09-09T21:13:24.211Z,24.70
2018-09-09T21:15:51.865Z,24.80
2018-09-09T21:18:19.534Z,24.80
2018-09-09T21:20:47.200Z,24.80
2018-09-09T21:23:14.831Z,24.80
2018-09-09T21:25:42.459Z,24.80
2018-09-09T21:28:10.149Z,24.90
2018-09-09T21:30:37.756Z,24.90
2018-09-09T21:33:05.661Z,24.90
2018-09-09T21:35:33.300Z,24.90
2018-09-09T21:38:00.961Z,24.90
2018-09-09T21:40:28.572Z,24.90
2018-09-09T21:42:56.184Z,24.90
2018-09-09T21:45:23.871Z,25.00
2018-09-09T21:47:51.494Z,25.00
2018-09-09T21:50:19.188Z,24.90
2018-09-09T21:52:46.835Z,24.90
2018-09-09T21:55:14.489Z,25.00
2018-09-09T21:57:42.327Z,25.00
2018-09-09T22:00:10.904Z,25.00
2018-09-09T22:02:39.649Z,25.00
2018-09-09T22:05:07.355Z,25.00
2018-09-09T22:07:35.526Z,25.00
2018-09-09T22:10:03.232Z,25.00
2018-09-09T22:12:30.909Z,25.00
2018-09-09T22:14:58.530Z,25.00
2018-09-09T22:17:26.305Z,25.00
2018-09-09T22:19:54.037Z,25.00
2018-09-09T22:22:21.700Z,25.00
2018-09-09T22:24:49.462Z,25.00
2018-09-09T22:27:17.140Z,25.00
2018-09-09T22:29:44.873Z,25.00
2018-09-09T22:32:12.592Z,25.00
2018-09-09T22:34:40.264Z,25.00
2018-09-09T22:37:07.918Z,25.00
2018-09-09T22:39:36.167Z,25.00
2018-09-09T22:42:03.844Z,25.00
2018-09-09T22:44:31.542Z,25.00
2018-09-09T22:46:59.126Z,25.00
2018-09-09T22:49:26.796Z,25.00
2018-09-09T22:51:54.524Z,25.00
2018-09-09T22:54:22.213Z,25.00
2018-09-09T22:56:49.868Z,25.00
2018-09-09T22:59:17.640Z,25.00
2018-09-09T23:01:45.416Z,25.00
2018-09-09T23:04:13.128Z,25.00
2018-09-09T23:06:40.853Z,25.00
2018-09-09T23:09:09.765Z,25.00
2018-09-09T23:11:37.411Z,25.00
2018-09-09T23:14:05.105Z,25.00
2018-09-09T23:16:34.894Z,25.00
2018-09-09T23:19:02.581Z,25.00
2018-09-09T23:21:30.285Z,25.00
2018-09-09T23:23:58.164Z,25.00
2018-09-09T23:26:25.850Z,25.00
2018-09-09T23:28:53.508Z,25.00
2018-09-09T23:31:21.148Z,25.00
2018-09-09T23:33:48.772Z,25.00
2018-09-09T23:36:16.375Z,25.00
2018-09-09T23:38:44.162Z,25.00
2018-09-09T23:41:11.792Z,25.00
2018-09-09T23:43:39.539Z,25.00
2018-09-09T23:46:07.158Z,25.00
2018-09-09T23:48:34.995Z,25.00
2018-09-09T23:51:02.646Z,25.00
2018-09-09T23:53:30.295Z,25.00
2018-09-09T23:55:58.295Z,25.00
2018-09-09T23:58:25.940Z,25.00
